Time;durP1;ratioP1;P1;durP2;ratioP2;P2;SDS_P1;SDS_P2;PMS_P1;PMS_P2;Temp;Humidity;BMP_temperature;BMP_pressure;BME280_temperature;BME280_humidity;BME280_pressure;Samples;Min_cycle;Max_cycle;Signal;HPM_P1;HPM_P2
2024/03/21 00:00:25;;;;;;;58.93;32.73;;;8.90;99.90;;;;;;4921725;29;20320;-61
2024/03/21 00:02:53;;;;;;;58.37;31.70;;;8.90;99.90;;;;;;4917988;29;20229;-60
2024/03/21 00:05:20;;;;;;;59.40;31.57;;;8.90;99.90;;;;;;4913915;29;20672;-61
2024/03/21 00:07:49;;;;;;;65.17;33.50;;;8.90;99.90;;;;;;4919030;29;20696;-61
2024/03/21 00:10:19;;;;;;;63.60;32.50;;;8.80;99.90;;;;;;4916327;29;20576;-62
2024/03/21 00:12:47;;;;;;;62.30;33.33;;;8.80;99.90;;;;;;4915958;29;20229;-61
2024/03/21 00:15:13;;;;;;;63.70;33.03;;;8.80;99.90;;;;;;4916741;29;20232;-61
2024/03/21 00:17:41;;;;;;;62.33;33.43;;;8.70;99.90;;;;;;4919855;29;20201;-61
2024/03/21 00:20:10;;;;;;;60.27;31.47;;;8.70;99.90;;;;;;4916897;29;20201;-61
2024/03/21 00:22:41;;;;;;;73.57;36.63;;;8.70;99.90;;;;;;4915503;29;20221;-62
2024/03/21 00:25:08;;;;;;;70.40;34.93;;;8.70;99.90;;;;;;4911131;29;20276;-62
2024/03/21 00:27:37;;;;;;;67.03;34.63;;;8.70;99.90;;;;;;4915959;29;20224;-62
2024/03/21 00:30:04;;;;;;;70.90;36.67;;;8.70;99.90;;;;;;4916589;29;20221;-62
2024/03/21 00:32:51;;;;;;;70.40;36.67;;;8.80;99.90;;;;;;4916262;29;20248;-61
2024/03/21 00:35:56;;;;;;;64.83;33.90;;;8.80;99.90;;;;;;4918406;29;20626;-61
2024/03/21 00:38:24;;;;;;;72.17;35.23;;;8.80;99.90;;;;;;4915973;29;20584;-61
2024/03/21 00:40:51;;;;;;;72.43;35.23;;;8.70;99.90;;;;;;4916316;29;20228;-62
2024/03/21 00:43:17;;;;;;;68.47;34.80;;;8.70;99.90;;;;;;4915966;29;20256;-61
2024/03/21 00:45:46;;;;;;;67.97;34.47;;;8.70;99.90;;;;;;4916196;29;20213;-61
2024/03/21 00:48:13;;;;;;;72.20;34.60;;;8.80;99.90;;;;;;4915720;29;20316;-61
2024/03/21 00:50:40;;;;;;;72.10;36.27;;;8.90;99.90;;;;;;4916151;29;20201;-61
2024/03/21 00:53:06;;;;;;;69.83;34.70;;;8.90;99.90;;;;;;4916929;29;20207;-61
2024/03/21 00:55:36;;;;;;;68.07;34.63;;;9.00;99.90;;;;;;4903013;29;20222;-61
2024/03/21 00:58:03;;;;;;;69.73;35.60;;;8.90;99.90;;;;;;4924951;29;20221;-61
2024/03/21 01:00:31;;;;;;;73.00;35.80;;;8.90;99.90;;;;;;4920355;29;20225;-62
2024/03/21 01:02:58;;;;;;;64.30;34.73;;;8.90;99.90;;;;;;4935809;29;20227;-61
2024/03/21 01:05:26;;;;;;;65.90;33.80;;;8.80;99.90;;;;;;4921934;29;20289;-62
2024/03/21 01:07:52;;;;;;;69.20;33.93;;;8.80;99.90;;;;;;4916414;29;20229;-61
2024/03/21 01:10:20;;;;;;;70.70;36.30;;;8.70;99.90;;;;;;4916714;29;20229;-61
2024/03/21 01:12:47;;;;;;;61.33;34.77;;;8.70;99.90;;;;;;4916122;29;20223;-61
2024/03/21 01:15:17;;;;;;;72.13;37.50;;;8.60;99.90;;;;;;4897599;29;20261;-61
2024/03/21 01:17:46;;;;;;;71.87;36.93;;;8.60;99.90;;;;;;4901743;29;20201;-61
2024/03/21 01:20:14;;;;;;;70.60;35.77;;;8.60;99.90;;;;;;4916391;29;20625;-61
2024/03/21 01:22:40;;;;;;;70.53;35.97;;;8.50;99.90;;;;;;4909762;29;20237;-61
2024/03/21 01:25:09;;;;;;;78.27;37.73;;;8.50;99.90;;;;;;4917479;29;20758;-61
2024/03/21 01:27:35;;;;;;;70.40;36.23;;;8.50;99.90;;;;;;4923795;29;20217;-61
2024/03/21 01:30:08;;;;;;;77.50;35.77;;;8.40;99.90;;;;;;4915263;29;20252;-61
2024/03/21 01:35:57;;;;;;;71.77;37.20;;;8.20;99.90;;;;;;4932076;29;20284;-61
2024/03/21 01:38:24;;;;;;;82.93;39.87;;;8.20;99.90;;;;;;4900159;29;20200;-61
2024/03/21 01:40:51;;;;;;;81.00;39.37;;;8.20;99.90;;;;;;4906435;29;20751;-61
2024/03/21 01:43:21;;;;;;;78.97;38.40;;;8.20;99.90;;;;;;4914928;29;20221;-61
2024/03/21 01:46:17;;;;;;;75.40;38.30;;;8.10;99.90;;;;;;4917386;29;20332;-61
2024/03/21 01:48:46;;;;;;;70.10;36.33;;;8.10;99.90;;;;;;4914629;29;20221;-61
2024/03/21 01:51:17;;;;;;;70.97;37.63;;;8.10;99.90;;;;;;4916137;29;20700;-61
2024/03/21 01:53:45;;;;;;;75.40;38.10;;;8.10;99.90;;;;;;4914997;29;20582;-61
2024/03/21 01:56:13;;;;;;;77.27;37.27;;;8.10;99.90;;;;;;4914947;29;20224;-61
2024/03/21 01:58:39;;;;;;;76.37;39.03;;;8.10;99.90;;;;;;4915956;29;20236;-61
2024/03/21 02:01:20;;;;;;;77.40;37.87;;;8.00;99.90;;;;;;4915181;29;20755;-61
2024/03/21 02:03:47;;;;;;;76.70;38.47;;;7.90;99.90;;;;;;4909809;29;20260;-61
2024/03/21 02:06:14;;;;;;;81.00;42.43;;;7.90;99.90;;;;;;4919485;29;20223;-61
2024/03/21 02:08:41;;;;;;;83.43;40.10;;;7.80;99.90;;;;;;4914748;29;20205;-61
2024/03/21 02:11:09;;;;;;;79.80;40.57;;;7.80;99.90;;;;;;4915192;29;20236;-61
2024/03/21 02:13:35;;;;;;;77.93;39.97;;;7.80;99.90;;;;;;4913365;29;20255;-61
2024/03/21 02:16:02;;;;;;;74.00;39.03;;;7.70;99.90;;;;;;4925131;29;20247;-61
2024/03/21 02:18:30;;;;;;;71.80;37.40;;;7.70;99.90;;;;;;4913981;29;20228;-61
2024/03/21 02:20:58;;;;;;;73.60;38.70;;;7.60;99.90;;;;;;4909748;29;20220;-61
2024/03/21 02:23:26;;;;;;;74.33;37.87;;;7.50;99.90;;;;;;4915017;29;20229;-61
2024/03/21 02:25:58;;;;;;;75.07;38.77;;;7.40;99.90;;;;;;4912098;29;20221;-62
2024/03/21 02:28:24;;;;;;;74.00;40.37;;;7.50;99.90;;;;;;4907261;29;20220;-61
2024/03/21 02:30:52;;;;;;;87.27;41.33;;;7.40;99.90;;;;;;4911205;29;20300;-61
2024/03/21 02:33:19;;;;;;;80.33;40.73;;;7.40;99.90;;;;;;4918134;29;20309;-61
2024/03/21 02:35:46;;;;;;;91.73;42.63;;;7.40;99.90;;;;;;4913038;29;20714;-61
2024/03/21 02:38:12;;;;;;;82.27;42.93;;;7.40;99.90;;;;;;4914240;29;20204;-61
2024/03/21 02:40:41;;;;;;;91.60;43.73;;;7.40;99.90;;;;;;4914638;29;20376;-60
2024/03/21 02:43:07;;;;;;;99.97;46.83;;;7.40;99.90;;;;;;4909738;29;20337;-61
2024/03/21 02:45:35;;;;;;;99.73;45.23;;;7.40;99.90;;;;;;4914308;29;20707;-61
2024/03/21 02:48:03;;;;;;;98.27;46.03;;;7.40;99.90;;;;;;4914454;29;20296;-61
2024/03/21 02:50:33;;;;;;;100.50;47.23;;;7.40;99.90;;;;;;4914141;29;20284;-60
2024/03/21 02:53:00;;;;;;;99.50;48.13;;;7.40;99.90;;;;;;4914894;29;20240;-61
2024/03/21 02:55:27;;;;;;;107.20;50.17;;;7.40;99.90;;;;;;4915151;29;20628;-61
2024/03/21 02:57:55;;;;;;;115.50;51.87;;;7.30;99.90;;;;;;4910713;29;20237;-61
2024/03/21 03:00:23;;;;;;;111.23;52.90;;;7.40;99.90;;;;;;4913103;29;20828;-61
2024/03/21 03:02:49;;;;;;;117.20;54.77;;;7.40;99.90;;;;;;4914188;29;20229;-61
2024/03/21 03:05:17;;;;;;;116.80;54.17;;;7.40;99.90;;;;;;4915724;29;20284;-60
2024/03/21 03:07:44;;;;;;;116.37;54.73;;;7.40;99.90;;;;;;4911967;29;20229;-61
2024/03/21 03:10:11;;;;;;;127.33;56.27;;;7.40;99.90;;;;;;4913685;29;20245;-61
2024/03/21 03:12:37;;;;;;;136.93;59.70;;;7.40;99.90;;;;;;4916901;29;20220;-62
2024/03/21 03:15:07;;;;;;;135.27;58.00;;;7.40;99.90;;;;;;4911601;29;20620;-61
2024/03/21 03:17:33;;;;;;;126.57;59.63;;;7.40;99.90;;;;;;4913591;29;20209;-61
2024/03/21 03:20:00;;;;;;;125.43;59.13;;;7.40;99.90;;;;;;4914585;29;20201;-61
2024/03/21 03:22:27;;;;;;;127.97;60.00;;;7.30;99.90;;;;;;4913716;29;20673;-61
2024/03/21 03:25:33;;;;;;;128.07;60.37;;;7.30;99.90;;;;;;4910490;29;20613;-62
2024/03/21 03:27:59;;;;;;;134.33;64.67;;;7.30;99.90;;;;;;4913100;29;20252;-61
2024/03/21 03:30:28;;;;;;;131.63;62.63;;;7.30;99.90;;;;;;4918775;29;20265;-61
2024/03/21 03:32:58;;;;;;;145.80;64.73;;;7.30;99.90;;;;;;4917807;29;20244;-61
2024/03/21 03:35:40;;;;;;;140.00;66.23;;;7.30;99.90;;;;;;4904281;29;20288;-62
2024/03/21 03:38:08;;;;;;;150.77;66.87;;;7.30;99.90;;;;;;4917486;29;20279;-61
2024/03/21 03:40:36;;;;;;;148.80;66.50;;;7.30;99.90;;;;;;4915365;29;20606;-61
2024/03/21 03:43:03;;;;;;;156.27;66.23;;;7.30;99.90;;;;;;4917446;29;20692;-61
2024/03/21 03:45:32;;;;;;;140.50;67.90;;;7.30;99.90;;;;;;4917440;29;20266;-62
2024/03/21 03:47:59;;;;;;;148.93;67.63;;;7.20;99.90;;;;;;4917313;29;20225;-61
2024/03/21 03:50:26;;;;;;;149.93;67.27;;;7.20;99.90;;;;;;4918063;29;20333;-61
2024/03/21 03:52:54;;;;;;;146.83;65.40;;;7.20;99.90;;;;;;4917456;29;20244;-61
2024/03/21 03:55:20;;;;;;;145.00;66.53;;;7.20;99.90;;;;;;4917646;29;20232;-60
2024/03/21 03:57:48;;;;;;;152.80;68.93;;;7.10;99.90;;;;;;4913544;29;20308;-60
2024/03/21 04:00:14;;;;;;;151.67;69.83;;;7.10;99.90;;;;;;4918906;29;20223;-60
2024/03/21 04:02:44;;;;;;;143.37;63.80;;;7.10;99.90;;;;;;4918144;29;20280;-60
2024/03/21 04:05:10;;;;;;;146.87;64.43;;;7.10;99.90;;;;;;4904242;29;20216;-61
2024/03/21 04:07:38;;;;;;;148.70;67.07;;;7.00;99.90;;;;;;4903664;29;20599;-61
2024/03/21 04:10:05;;;;;;;169.47;69.07;;;7.00;99.90;;;;;;4917676;29;20390;-61
2024/03/21 04:12:33;;;;;;;142.03;66.87;;;7.00;99.90;;;;;;4918271;29;20557;-61
2024/03/21 04:14:59;;;;;;;156.40;66.77;;;7.00;99.90;;;;;;4917193;29;20235;-61
2024/03/21 04:17:27;;;;;;;164.03;68.63;;;7.00;99.90;;;;;;4926993;29;20221;-61
2024/03/21 04:19:54;;;;;;;163.40;68.17;;;7.00;99.90;;;;;;4906524;29;20225;-61
2024/03/21 04:22:22;;;;;;;144.60;68.17;;;7.10;99.90;;;;;;4915234;29;20251;-61
2024/03/21 04:24:48;;;;;;;142.10;68.17;;;7.10;99.90;;;;;;4916875;29;20329;-61
2024/03/21 04:27:15;;;;;;;149.80;67.17;;;7.10;99.90;;;;;;4918461;29;20232;-61
2024/03/21 04:29:43;;;;;;;140.53;65.83;;;7.00;99.90;;;;;;4917621;29;20619;-61
2024/03/21 04:32:15;;;;;;;142.17;64.97;;;7.00;99.90;;;;;;4914412;29;20202;-61
2024/03/21 04:34:42;;;;;;;145.87;65.93;;;7.00;99.90;;;;;;4902023;29;20231;-60
2024/03/21 04:37:16;;;;;;;153.83;68.63;;;7.00;99.90;;;;;;4916071;29;20779;-61
2024/03/21 04:39:43;;;;;;;156.33;68.63;;;7.00;99.90;;;;;;4920644;29;20574;-61
2024/03/21 04:42:12;;;;;;;163.13;69.93;;;7.10;99.90;;;;;;4915926;29;20238;-61
2024/03/21 04:44:39;;;;;;;167.17;71.93;;;7.20;99.90;;;;;;4917517;29;20288;-61
2024/03/21 04:47:07;;;;;;;164.63;70.37;;;7.30;99.90;;;;;;4918242;29;20521;-61
2024/03/21 04:49:33;;;;;;;165.47;72.00;;;7.40;99.90;;;;;;4916567;29;20221;-61
2024/03/21 04:52:00;;;;;;;171.13;71.13;;;7.50;99.90;;;;;;4919134;29;20284;-62
2024/03/21 04:54:28;;;;;;;157.30;67.90;;;7.60;99.90;;;;;;4913897;29;20720;-61
2024/03/21 04:56:56;;;;;;;156.03;66.40;;;7.70;99.90;;;;;;4914091;29;20226;-61
2024/03/21 04:59:25;;;;;;;169.57;67.07;;;7.70;99.90;;;;;;4921425;29;20601;-61
2024/03/21 05:01:53;;;;;;;166.07;67.30;;;7.80;99.90;;;;;;4923239;29;20364;-61
2024/03/21 05:04:19;;;;;;;176.37;69.57;;;7.90;99.90;;;;;;4933469;29;20256;-62
2024/03/21 05:06:46;;;;;;;172.50;68.03;;;7.90;99.90;;;;;;4919803;29;20228;-61
2024/03/21 05:09:13;;;;;;;184.63;67.50;;;8.00;99.90;;;;;;4915421;29;20316;-60
2024/03/21 05:11:41;;;;;;;183.07;66.23;;;8.00;99.90;;;;;;4915752;29;20732;-61
2024/03/21 05:14:08;;;;;;;170.57;63.00;;;8.10;99.90;;;;;;4920209;29;20284;-61
2024/03/21 05:16:35;;;;;;;161.40;59.30;;;8.10;99.90;;;;;;4914017;29;20217;-61
2024/03/21 05:19:01;;;;;;;187.07;62.50;;;8.20;99.90;;;;;;4912885;29;20225;-60
2024/03/21 05:21:29;;;;;;;174.83;59.43;;;8.20;99.90;;;;;;4916449;29;20696;-61
2024/03/21 05:23:55;;;;;;;177.30;58.97;;;8.30;99.90;;;;;;4915043;29;20229;-61
2024/03/21 05:26:22;;;;;;;169.23;58.70;;;8.30;99.90;;;;;;4917644;29;20349;-61
2024/03/21 05:28:50;;;;;;;178.00;59.53;;;8.40;99.90;;;;;;4915765;29;20213;-60
2024/03/21 05:31:22;;;;;;;179.53;57.70;;;8.40;99.90;;;;;;4902003;29;20321;-61
2024/03/21 05:33:49;;;;;;;179.03;59.27;;;8.50;99.90;;;;;;4916624;29;20300;-60
2024/03/21 05:36:17;;;;;;;188.40;61.83;;;8.50;99.90;;;;;;4899625;29;20326;-61
2024/03/21 05:38:44;;;;;;;178.70;59.70;;;8.50;99.90;;;;;;4916628;29;20249;-61
2024/03/21 05:41:12;;;;;;;192.37;60.17;;;8.60;99.90;;;;;;4916126;29;20597;-61
2024/03/21 05:43:39;;;;;;;174.27;59.37;;;8.60;99.90;;;;;;4914822;29;20247;-61
2024/03/21 05:46:07;;;;;;;184.17;57.83;;;8.60;99.90;;;;;;4915046;29;20313;-61
2024/03/21 05:48:34;;;;;;;169.67;56.33;;;8.70;99.90;;;;;;4918022;29;20214;-61
2024/03/21 05:51:04;;;;;;;176.37;56.80;;;8.70;99.90;;;;;;4914806;29;20720;-61
2024/03/21 05:53:30;;;;;;;172.47;56.77;;;8.80;99.90;;;;;;4913525;29;20201;-61
2024/03/21 05:56:00;;;;;;;167.90;54.13;;;8.80;99.90;;;;;;4919340;29;20280;-61
2024/03/21 05:58:27;;;;;;;154.70;53.70;;;8.80;99.90;;;;;;4917069;29;20795;-61
2024/03/21 06:00:55;;;;;;;156.13;54.17;;;8.90;99.90;;;;;;4916757;29;20323;-61
2024/03/21 06:03:23;;;;;;;142.47;50.30;;;8.90;99.90;;;;;;4898827;29;20221;-61
2024/03/21 06:05:50;;;;;;;129.77;48.90;;;8.90;99.90;;;;;;4921993;29;20307;-61
2024/03/21 06:08:17;;;;;;;117.73;45.10;;;9.00;99.90;;;;;;4914080;29;20234;-61
2024/03/21 06:10:44;;;;;;;101.77;40.50;;;9.00;99.90;;;;;;4914778;29;20248;-61
2024/03/21 06:13:10;;;;;;;99.60;40.23;;;9.00;99.90;;;;;;4914710;29;20221;-61
2024/03/21 06:15:38;;;;;;;97.07;38.73;;;9.00;99.90;;;;;;4914851;29;20222;-61
2024/03/21 06:18:07;;;;;;;88.83;36.37;;;9.00;99.90;;;;;;4914674;29;20308;-61
2024/03/21 06:20:36;;;;;;;87.33;36.40;;;9.00;99.90;;;;;;4914623;29;20280;-61
2024/03/21 06:23:03;;;;;;;83.40;35.43;;;9.00;99.90;;;;;;4909707;29;20616;-61
2024/03/21 06:25:30;;;;;;;88.67;37.27;;;9.00;99.90;;;;;;4915072;29;20828;-61
2024/03/21 06:27:57;;;;;;;85.07;36.33;;;9.00;99.90;;;;;;4900720;29;20249;-61
2024/03/21 06:30:24;;;;;;;91.30;35.57;;;9.00;99.90;;;;;;4916370;29;20223;-61
2024/03/21 06:32:50;;;;;;;87.33;36.43;;;9.00;99.90;;;;;;4914852;29;20225;-61
2024/03/21 06:35:18;;;;;;;92.23;38.57;;;9.00;99.90;;;;;;4915272;29;20659;-61
2024/03/21 06:37:51;;;;;;;82.30;36.30;;;9.00;99.90;;;;;;4915949;29;20231;-62
2024/03/21 06:40:18;;;;;;;88.57;37.03;;;9.10;99.90;;;;;;4915829;29;20224;-61
2024/03/21 06:42:47;;;;;;;83.00;35.40;;;9.10;99.90;;;;;;4915890;29;20308;-62
2024/03/21 06:45:14;;;;;;;81.80;35.70;;;9.10;99.90;;;;;;4914191;29;20319;-62
2024/03/21 06:47:44;;;;;;;81.90;35.77;;;9.20;99.90;;;;;;4917574;29;20205;-62
2024/03/21 06:50:12;;;;;;;76.97;35.80;;;9.20;99.90;;;;;;4914103;29;20616;-62
2024/03/21 06:53:18;;;;;;;71.93;32.93;;;9.20;99.90;;;;;;4912800;29;20633;-62
2024/03/21 06:55:53;;;;;;;74.40;33.30;;;9.20;99.90;;;;;;4912747;29;20792;-62
2024/03/21 06:58:20;;;;;;;74.73;31.70;;;9.20;99.90;;;;;;4917234;29;20312;-61
2024/03/21 07:00:47;;;;;;;71.50;31.43;;;9.20;99.90;;;;;;4924548;29;20229;-62
2024/03/21 07:10:39;;;;;;;80.97;34.43;;;9.20;99.90;;;;;;4920212;29;20365;-61
2024/03/21 07:13:07;;;;;;;70.93;31.57;;;9.10;99.90;;;;;;4914796;29;20225;-62
2024/03/21 07:15:34;;;;;;;73.00;31.20;;;9.20;99.90;;;;;;4917615;29;20227;-61
2024/03/21 07:18:00;;;;;;;79.23;33.77;;;9.20;99.90;;;;;;4916548;29;20225;-62
2024/03/21 07:20:27;;;;;;;74.10;32.03;;;9.20;99.90;;;;;;4918419;29;20707;-61
2024/03/21 07:22:54;;;;;;;68.93;31.20;;;9.30;99.90;;;;;;4918130;29;20237;-61
2024/03/21 07:25:21;;;;;;;69.17;29.07;;;9.20;99.90;;;;;;4921587;29;20249;-62
2024/03/21 07:27:47;;;;;;;55.33;24.47;;;9.30;99.90;;;;;;4924363;29;20209;-61
2024/03/21 07:30:18;;;;;;;53.17;23.70;;;9.30;99.90;;;;;;4919014;29;20703;-62
2024/03/21 07:32:45;;;;;;;47.83;21.43;;;9.30;99.90;;;;;;4916985;29;20212;-62
2024/03/21 07:35:12;;;;;;;51.30;21.33;;;9.40;99.90;;;;;;4918016;29;20238;-61
2024/03/21 07:37:38;;;;;;;37.47;18.77;;;9.40;99.90;;;;;;4914045;29;20225;-61
2024/03/21 07:40:07;;;;;;;39.17;18.60;;;9.40;99.90;;;;;;4918153;29;20779;-61
2024/03/21 07:42:33;;;;;;;40.80;18.03;;;9.40;99.90;;;;;;4914641;29;20228;-62
2024/03/21 07:45:03;;;;;;;35.23;17.03;;;9.40;99.90;;;;;;4908390;29;20230;-62
2024/03/21 07:47:31;;;;;;;31.97;16.70;;;9.40;99.90;;;;;;4913674;29;20202;-61
2024/03/21 07:49:58;;;;;;;32.87;16.00;;;9.40;99.90;;;;;;4917188;29;20592;-62
2024/03/21 07:52:24;;;;;;;34.13;16.20;;;9.40;99.90;;;;;;4917658;29;20275;-61
2024/03/21 07:54:53;;;;;;;34.23;16.67;;;9.50;99.90;;;;;;4917348;29;20284;-62
2024/03/21 07:57:19;;;;;;;34.97;16.40;;;9.60;99.90;;;;;;4914960;29;20229;-62
2024/03/21 07:59:46;;;;;;;35.97;16.77;;;9.50;99.90;;;;;;4917112;29;20284;-61
2024/03/21 08:02:14;;;;;;;37.63;17.60;;;9.50;99.90;;;;;;4916497;29;20675;-61
2024/03/21 08:04:43;;;;;;;38.33;16.60;;;9.50;99.90;;;;;;4916290;29;20308;-62
2024/03/21 08:07:09;;;;;;;30.67;14.30;;;9.60;99.90;;;;;;4914229;29;20647;-62
2024/03/21 08:09:36;;;;;;;37.47;17.00;;;9.70;99.90;;;;;;4915924;29;20225;-62
2024/03/21 08:12:03;;;;;;;38.97;18.50;;;9.70;99.90;;;;;;4914876;29;20221;-61
2024/03/21 08:14:30;;;;;;;36.77;17.87;;;9.50;99.90;;;;;;4918373;29;20205;-60
2024/03/21 08:16:57;;;;;;;33.07;17.07;;;9.50;99.90;;;;;;4923949;29;20239;-61
2024/03/21 08:19:24;;;;;;;34.33;16.40;;;9.60;99.90;;;;;;4909887;29;20221;-61
2024/03/21 08:21:53;;;;;;;35.23;16.53;;;9.70;99.90;;;;;;4916593;29;20224;-61
2024/03/21 08:25:00;;;;;;;33.60;16.43;;;9.70;99.90;;;;;;4919075;29;20684;-62
2024/03/21 08:27:28;;;;;;;22.83;12.80;;;9.80;99.90;;;;;;4915712;29;20254;-62
2024/03/21 08:29:56;;;;;;;39.67;18.37;;;9.90;99.90;;;;;;4917418;29;20245;-61
2024/03/21 08:32:22;;;;;;;52.27;21.27;;;9.80;99.90;;;;;;4915334;29;20201;-62
2024/03/21 08:34:50;;;;;;;77.90;29.83;;;9.80;99.90;;;;;;4917257;29;20360;-62
2024/03/21 08:37:18;;;;;;;76.57;29.10;;;9.80;99.90;;;;;;4931850;29;20244;-61
2024/03/21 08:39:45;;;;;;;75.87;29.93;;;9.90;99.90;;;;;;4919431;29;20217;-61
2024/03/21 08:42:11;;;;;;;79.87;32.47;;;10.00;99.90;;;;;;4915215;29;20232;-61
2024/03/21 08:44:39;;;;;;;75.63;32.27;;;10.00;99.90;;;;;;4917311;29;20194;-61
2024/03/21 08:47:05;;;;;;;73.83;32.47;;;10.10;99.90;;;;;;4916774;29;20608;-61
2024/03/21 08:52:59;;;;;;;74.77;30.73;;;10.00;99.90;;;;;;4915288;29;20304;-61
2024/03/21 08:55:26;;;;;;;72.60;32.67;;;10.00;99.90;;;;;;4917755;29;20763;-61
2024/03/21 08:57:53;;;;;;;75.13;33.10;;;10.10;99.90;;;;;;4916070;29;20691;-62
2024/03/21 09:00:20;;;;;;;71.50;31.47;;;10.10;99.90;;;;;;4915362;29;20232;-61
2024/03/21 09:02:47;;;;;;;69.27;31.90;;;10.10;99.90;;;;;;4916895;29;20236;-61
2024/03/21 09:05:16;;;;;;;70.73;31.60;;;10.10;99.90;;;;;;4917586;29;20620;-61
2024/03/21 09:07:44;;;;;;;69.20;31.73;;;10.20;99.90;;;;;;4915189;29;20221;-61
2024/03/21 09:10:11;;;;;;;68.93;32.00;;;10.20;99.90;;;;;;4916025;29;20619;-61
2024/03/21 09:12:42;;;;;;;71.87;32.60;;;10.30;99.90;;;;;;4914147;29;20568;-61
2024/03/21 09:15:11;;;;;;;74.43;33.63;;;10.30;99.90;;;;;;4916974;29;20228;-61
2024/03/21 09:17:38;;;;;;;70.07;33.53;;;10.40;99.90;;;;;;4917994;29;20763;-61
2024/03/21 09:20:07;;;;;;;71.37;34.00;;;10.50;99.90;;;;;;4923687;29;20727;-61
2024/03/21 09:22:35;;;;;;;82.23;35.63;;;10.50;99.90;;;;;;4915458;29;20316;-61
2024/03/21 09:25:02;;;;;;;75.13;35.43;;;10.50;99.90;;;;;;4914631;29;20560;-61
2024/03/21 09:27:31;;;;;;;79.60;37.30;;;10.50;99.90;;;;;;4916108;29;20248;-61
2024/03/21 09:29:57;;;;;;;70.70;34.80;;;10.60;99.90;;;;;;4915947;29;20308;-61
2024/03/21 09:32:25;;;;;;;73.43;34.90;;;10.60;99.90;;;;;;4911498;29;20292;-61
2024/03/21 09:34:51;;;;;;;71.10;36.33;;;10.60;99.90;;;;;;4917585;29;20304;-61
2024/03/21 09:37:19;;;;;;;73.80;33.47;;;10.70;99.90;;;;;;4915197;29;20304;-61
2024/03/21 09:39:46;;;;;;;58.40;32.07;;;10.70;99.90;;;;;;4915149;29;20261;-61
2024/03/21 09:42:17;;;;;;;60.50;31.53;;;10.70;99.90;;;;;;4915285;29;20716;-61
2024/03/21 09:44:48;;;;;;;56.47;30.70;;;10.80;99.90;;;;;;4918324;29;20204;-61
2024/03/21 09:47:19;;;;;;;51.23;29.03;;;10.80;99.90;;;;;;4916845;29;20248;-61
2024/03/21 09:49:46;;;;;;;53.90;30.97;;;10.80;99.90;;;;;;4915135;29;20340;-61
2024/03/21 09:52:16;;;;;;;56.13;31.63;;;10.90;99.90;;;;;;4915195;29;20308;-61
2024/03/21 09:57:52;;;;;;;47.30;28.87;;;11.10;99.90;;;;;;4914305;29;20628;-62
2024/03/21 10:00:20;;;;;;;47.40;29.37;;;11.20;99.90;;;;;;4914759;29;20320;-62
2024/03/21 10:02:47;;;;;;;47.27;28.67;;;11.20;99.90;;;;;;4915736;29;20201;-61
2024/03/21 10:05:21;;;;;;;53.23;29.73;;;11.20;99.90;;;;;;4915885;29;20197;-61
2024/03/21 10:07:49;;;;;;;54.57;30.77;;;11.40;99.90;;;;;;4914756;29;20209;-61
2024/03/21 10:10:18;;;;;;;45.80;28.27;;;11.70;99.90;;;;;;4911155;29;20307;-61
2024/03/21 10:12:47;;;;;;;46.40;29.77;;;11.80;99.90;;;;;;4915117;29;20304;-62
2024/03/21 10:15:14;;;;;;;44.60;27.73;;;11.80;99.90;;;;;;4917610;29;20315;-61
2024/03/21 10:17:44;;;;;;;51.00;28.97;;;11.90;99.90;;;;;;4914684;29;20186;-62
2024/03/21 10:20:10;;;;;;;47.00;28.47;;;11.90;99.90;;;;;;4918405;29;20198;-61
2024/03/21 10:22:45;;;;;;;39.27;24.53;;;12.00;99.90;;;;;;4906441;29;20236;-62
2024/03/21 10:25:14;;;;;;;31.47;18.87;;;12.00;99.90;;;;;;4912171;29;20724;-61
2024/03/21 10:27:43;;;;;;;22.07;15.27;;;12.00;99.90;;;;;;4914754;29;20229;-61
2024/03/21 10:30:16;;;;;;;24.87;16.20;;;12.00;99.90;;;;;;4914934;29;20645;-61
2024/03/21 10:33:22;;;;;;;27.60;18.70;;;12.00;99.90;;;;;;4916180;29;20193;-61
2024/03/21 10:36:11;;;;;;;25.47;17.93;;;12.00;99.90;;;;;;4913151;29;20363;-61
2024/03/21 10:38:38;;;;;;;27.67;16.43;;;12.10;99.90;;;;;;4914135;29;20312;-60
2024/03/21 10:41:11;;;;;;;21.27;15.60;;;12.20;99.90;;;;;;4920457;29;20334;-61
2024/03/21 10:50:44;;;;;;;18.47;11.27;;;12.50;99.90;;;;;;4915445;29;20565;-62
2024/03/21 10:53:19;;;;;;;13.03;10.80;;;12.70;99.90;;;;;;4912561;29;20561;-61
2024/03/21 10:55:49;;;;;;;14.03;10.20;;;12.70;99.90;;;;;;4915024;29;20297;-62
2024/03/21 10:58:16;;;;;;;12.50;10.00;;;12.80;99.90;;;;;;4915259;29;20316;-62
2024/03/21 11:00:52;;;;;;;12.47;10.83;;;12.70;99.90;;;;;;4914595;29;20597;-61
2024/03/21 11:03:19;;;;;;;15.37;9.90;;;12.80;99.90;;;;;;4904126;29;20309;-61
2024/03/21 11:05:56;;;;;;;13.97;9.70;;;12.70;99.90;;;;;;4914597;29;20186;-61
2024/03/21 11:08:27;;;;;;;12.07;10.87;;;12.70;99.90;;;;;;4915013;29;20648;-61
2024/03/21 11:10:55;;;;;;;12.63;9.50;;;12.60;99.90;;;;;;4911801;29;20683;-61
2024/03/21 11:13:24;;;;;;;12.13;8.73;;;12.70;99.90;;;;;;4913106;29;20280;-61
2024/03/21 11:15:53;;;;;;;13.73;8.63;;;12.80;99.90;;;;;;4914184;29;20222;-62
2024/03/21 11:18:19;;;;;;;9.60;8.07;;;13.00;99.90;;;;;;4901348;29;20234;-62
2024/03/21 11:20:47;;;;;;;8.57;7.53;;;13.20;99.90;;;;;;4913978;29;20280;-62
2024/03/21 11:23:15;;;;;;;7.13;6.47;;;13.40;99.90;;;;;;4917914;29;20225;-62
2024/03/21 11:25:44;;;;;;;6.80;6.10;;;13.40;99.90;;;;;;4917466;29;20304;-62
2024/03/21 11:28:12;;;;;;;7.23;6.63;;;13.30;99.90;;;;;;4912405;29;20652;-62
2024/03/21 11:30:44;;;;;;;7.30;6.70;;;13.30;97.90;;;;;;4905423;29;20222;-61
2024/03/21 11:33:11;;;;;;;7.67;6.30;;;13.30;99.90;;;;;;4914452;29;20229;-61
2024/03/21 11:35:40;;;;;;;8.60;6.27;;;13.20;98.10;;;;;;4915083;29;20203;-62
2024/03/21 11:38:07;;;;;;;5.67;5.17;;;13.20;99.90;;;;;;4916219;29;20219;-62
2024/03/21 11:40:35;;;;;;;5.73;5.20;;;13.20;99.90;;;;;;4912091;29;20225;-62
2024/03/21 11:43:05;;;;;;;7.07;4.83;;;13.20;99.90;;;;;;4908835;29;20305;-62
2024/03/21 11:45:33;;;;;;;5.63;5.13;;;13.50;99.90;;;;;;4914187;29;20749;-62
2024/03/21 11:48:09;;;;;;;5.43;5.03;;;13.70;99.60;;;;;;4915886;29;20569;-61
2024/03/21 11:50:37;;;;;;;5.43;5.00;;;13.80;91.90;;;;;;4918068;29;21432;-62
2024/03/21 11:53:04;;;;;;;6.10;5.50;;;13.80;59.70;;;;;;4909632;29;20207;-62
2024/03/21 11:55:31;;;;;;;6.33;5.83;;;13.80;51.70;;;;;;4918579;29;20249;-61
2024/03/21 11:57:58;;;;;;;11.30;5.57;;;14.00;62.80;;;;;;4921227;29;20221;-61
2024/03/21 12:00:27;;;;;;;5.77;5.30;;;14.20;41.50;;;;;;4928267;29;20230;-61
2024/03/21 12:02:53;;;;;;;5.03;4.53;;;14.30;29.60;;;;;;4915909;29;20261;-61
2024/03/21 12:05:21;;;;;;;8.20;5.50;;;14.40;1.00;;;;;;4903271;29;20195;-62
2024/03/21 12:07:47;;;;;;;5.67;4.97;;;14.60;1.00;;;;;;4917413;29;20215;-61
2024/03/21 12:10:15;;;;;;;5.93;4.70;;;14.60;1.00;;;;;;4922630;29;20223;-62
2024/03/21 12:12:43;;;;;;;4.70;4.40;;;14.80;1.00;;;;;;4915720;29;20227;-62
2024/03/21 12:15:14;;;;;;;4.90;4.60;;;14.90;1.00;;;;;;4916714;29;20232;-62
2024/03/21 12:17:41;;;;;;;7.17;4.83;;;15.10;1.00;;;;;;4925705;29;20299;-62
2024/03/21 12:20:09;;;;;;;6.37;4.37;;;15.40;1.00;;;;;;4917534;29;20278;-62
2024/03/21 12:22:36;;;;;;;4.97;4.37;;;15.40;1.00;;;;;;4918145;29;20251;-61
2024/03/21 12:25:03;;;;;;;6.93;4.83;;;15.50;99.90;;;;;;4917481;29;20325;-62
2024/03/21 12:27:30;;;;;;;4.63;4.23;;;15.40;84.40;;;;;;4927202;29;20228;-62
2024/03/21 12:29:57;;;;;;;4.90;4.40;;;15.40;1.00;;;;;;4918586;29;20217;-61
2024/03/21 12:32:24;;;;;;;9.60;4.43;;;15.30;1.00;;;;;;4919437;29;20292;-62
2024/03/21 12:34:52;;;;;;;7.00;4.87;;;15.30;99.90;;;;;;4919047;29;20657;-62
2024/03/21 12:37:21;;;;;;;7.73;5.03;;;15.60;1.00;;;;;;4917356;29;20704;-62
2024/03/21 12:39:48;;;;;;;6.70;4.93;;;15.80;99.90;;;;;;4916765;29;20276;-62
2024/03/21 12:42:17;;;;;;;5.13;4.13;;;16.20;1.00;;;;;;4924663;29;20235;-62
2024/03/21 12:44:45;;;;;;;5.53;3.90;;;16.80;99.90;;;;;;4919798;29;20223;-62
2024/03/21 12:47:11;;;;;;;4.47;4.07;;;17.10;1.00;;;;;;4917714;29;20244;-62
2024/03/21 12:49:38;;;;;;;4.30;3.97;;;17.30;99.90;;;;;;4917239;29;20304;-62
2024/03/21 12:52:07;;;;;;;4.30;3.93;;;17.30;1.00;;;;;;4901071;29;20280;-62
2024/03/21 12:54:35;;;;;;;5.10;4.00;;;17.30;1.00;;;;;;4916981;29;20229;-62
2024/03/21 12:57:01;;;;;;;5.60;3.83;;;17.40;99.90;;;;;;4922133;29;20816;-62
2024/03/21 12:59:29;;;;;;;5.33;3.77;;;17.40;1.00;;;;;;4921200;29;20296;-62
2024/03/21 13:01:55;;;;;;;6.13;4.00;;;17.30;1.00;;;;;;4935815;29;20263;-61
2024/03/21 13:04:23;;;;;;;4.10;3.80;;;17.20;99.90;;;;;;4921200;29;20236;-61
2024/03/21 13:06:49;;;;;;;6.33;4.10;;;17.10;99.90;;;;;;4916450;29;20221;-61